createdAt,value
2018-11-20T00:01:22.924Z,19.40
2018-11-20T00:06:46.330Z,16.45
2018-11-20T00:12:10.139Z,15.60
2018-11-20T00:17:34.220Z,20.50
2018-11-20T00:23:00.721Z,16.40
2018-11-20T00:28:24.299Z,17.12
2018-11-20T00:33:50.813Z,20.05
2018-11-20T00:39:14.349Z,18.15
2018-11-20T00:44:37.631Z,17.92
2018-11-20T00:50:00.964Z,15.30
2018-11-20T00:55:25.644Z,17.42
2018-11-20T01:00:49.507Z,17.87
2018-11-20T01:06:13.003Z,16.32
2018-11-20T01:11:42.974Z,18.75
2018-11-20T01:17:06.734Z,14.98
2018-11-20T01:22:30.260Z,16.85
2018-11-20T01:27:53.819Z,17.60
2018-11-20T01:33:17.305Z,17.65
2018-11-20T01:38:40.827Z,17.50
2018-11-20T01:44:07.678Z,18.70
2018-11-20T01:49:31.106Z,17.10
2018-11-20T01:54:54.400Z,18.00
2018-11-20T02:00:17.989Z,18.80
2018-11-20T02:05:44.551Z,18.12
2018-11-20T02:11:08.517Z,16.12
2018-11-20T02:16:32.154Z,16.35
2018-11-20T02:21:55.884Z,17.00
2018-11-20T02:27:19.678Z,18.23
2018-11-20T02:32:42.882Z,17.25
2018-11-20T02:38:06.826Z,16.95
2018-11-20T02:43:30.826Z,17.17
2018-11-20T02:48:54.080Z,17.32
2018-11-20T02:54:20.697Z,19.85
2018-11-20T02:59:46.911Z,16.20
2018-11-20T03:05:10.218Z,18.65
2018-11-20T03:10:33.591Z,18.20
2018-11-20T03:15:57.217Z,20.97
2018-11-20T03:21:21.118Z,17.60
2018-11-20T03:26:45.037Z,17.25
2018-11-20T03:32:08.288Z,18.70
2018-11-20T03:37:31.853Z,18.73
2018-11-20T03:42:55.189Z,19.42
2018-11-20T03:48:18.182Z,18.98
2018-11-20T03:53:42.057Z,18.75
2018-11-20T03:59:05.590Z,15.83
2018-11-20T04:04:28.830Z,19.55
2018-11-20T04:09:52.829Z,19.35
2018-11-20T04:15:16.439Z,16.17
2018-11-20T04:20:39.631Z,17.60
2018-11-20T04:26:06.029Z,18.67
2018-11-20T04:31:32.759Z,18.55
2018-11-20T04:36:56.626Z,19.30
2018-11-20T04:42:20.214Z,16.75
2018-11-20T04:47:44.128Z,17.15
2018-11-20T04:53:07.493Z,17.95
2018-11-20T04:58:31.035Z,16.12
2018-11-20T05:03:54.898Z,17.00
2018-11-20T05:09:18.617Z,17.62
2018-11-20T05:14:42.278Z,19.75
2018-11-20T05:20:05.876Z,18.48
2018-11-20T05:25:37.127Z,20.55
2018-11-20T05:28:40.560Z,17.80
2018-11-20T05:31:47.133Z,15.98
2018-11-20T05:34:41.712Z,17.48
2018-11-20T05:37:49.263Z,18.07
2018-11-20T05:40:56.769Z,21.60
2018-11-20T05:43:37.464Z,20.48
2018-11-20T05:49:01.076Z,16.23
2018-11-20T05:54:24.616Z,17.55
2018-11-20T05:59:48.696Z,17.70
2018-11-20T06:05:15.487Z,20.75
2018-11-20T06:10:39.001Z,17.67
2018-11-20T06:16:02.415Z,18.67
2018-11-20T06:21:28.503Z,17.45
2018-11-20T06:26:51.914Z,19.48
2018-11-20T06:29:55.696Z,19.12
2018-11-20T06:32:39.700Z,17.50
2018-11-20T06:38:03.343Z,16.60
2018-11-20T06:43:29.369Z,17.42
2018-11-20T06:48:59.624Z,17.00
2018-11-20T06:54:22.926Z,20.88
2018-11-20T06:59:46.348Z,17.62
2018-11-20T07:05:12.230Z,18.73
2018-11-20T07:10:35.750Z,18.73
2018-11-20T07:15:59.479Z,16.45
2018-11-20T07:21:22.292Z,16.87
2018-11-20T07:26:48.857Z,15.78
2018-11-20T07:32:12.900Z,13.50
2018-11-20T07:37:39.686Z,14.05
2018-11-20T07:43:03.077Z,15.20
2018-11-20T07:48:26.285Z,15.30
2018-11-20T07:53:49.522Z,15.83
2018-11-20T07:59:15.738Z,15.10
2018-11-20T08:04:39.053Z,17.75
2018-11-20T08:10:05.474Z,16.00
2018-11-20T08:15:31.981Z,17.77
2018-11-20T08:20:55.270Z,15.95
2018-11-20T08:26:18.785Z,16.05
2018-11-20T08:31:42.472Z,14.53
2018-11-20T08:34:46.457Z,16.12
2018-11-20T08:37:28.092Z,16.37
2018-11-20T08:42:51.590Z,16.15
2018-11-20T08:48:14.807Z,17.60
2018-11-20T08:53:38.311Z,17.07
2018-11-20T08:59:01.730Z,18.10
2018-11-20T09:04:25.580Z,19.02
2018-11-20T09:09:52.292Z,16.45
2018-11-20T09:15:15.519Z,18.32
2018-11-20T09:20:42.017Z,19.77
2018-11-20T09:26:06.057Z,19.37
2018-11-20T09:31:33.182Z,17.73
2018-11-20T09:36:56.780Z,16.37
2018-11-20T09:42:20.056Z,17.85
2018-11-20T09:47:43.480Z,15.48
2018-11-20T09:53:09.625Z,15.55
2018-11-20T09:58:33.085Z,14.87
2018-11-20T10:03:59.438Z,16.07
2018-11-20T10:09:22.711Z,16.00
2018-11-20T10:14:46.522Z,15.32
2018-11-20T10:20:10.265Z,15.83
2018-11-20T10:25:36.999Z,15.83
2018-11-20T10:31:00.261Z,17.02
2018-11-20T10:36:23.553Z,14.23
2018-11-20T10:41:50.174Z,18.00
2018-11-20T10:47:14.131Z,15.58
2018-11-20T10:52:38.265Z,12.85
2018-11-20T10:58:01.497Z,15.90
2018-11-20T11:03:27.547Z,17.05
2018-11-20T11:08:56.999Z,13.62
2018-11-20T11:14:20.437Z,15.70
2018-11-20T11:19:43.853Z,13.58
2018-11-20T11:25:07.552Z,12.50
2018-11-20T11:30:30.940Z,13.10
2018-11-20T11:35:54.668Z,13.58
2018-11-20T11:41:37.277Z,13.05
2018-11-20T11:47:01.127Z,13.83
2018-11-20T11:52:30.395Z,13.10
2018-11-20T11:57:53.549Z,13.78
2018-11-20T12:03:17.065Z,14.78
2018-11-20T12:08:41.179Z,16.55
2018-11-20T12:14:04.462Z,16.07
2018-11-20T12:19:27.820Z,16.65
2018-11-20T12:24:51.941Z,13.83
2018-11-20T12:30:19.279Z,15.00
2018-11-20T12:35:42.799Z,12.50
2018-11-20T12:41:12.954Z,15.00
2018-11-20T12:46:36.496Z,9.75
2018-11-20T12:51:59.989Z,13.25
2018-11-20T12:57:23.201Z,16.17
2018-11-20T13:02:47.354Z,16.85
2018-11-20T13:08:11.150Z,13.78
2018-11-20T13:13:40.877Z,14.85
2018-11-20T13:19:07.381Z,17.10
2018-11-20T13:24:30.485Z,17.27
2018-11-20T13:29:57.576Z,14.03
2018-11-20T13:35:21.848Z,16.65
2018-11-20T13:40:46.140Z,15.88
2018-11-20T13:46:11.940Z,15.83
2018-11-20T13:51:34.978Z,18.05
2018-11-20T13:57:01.200Z,16.40
2018-11-20T14:02:27.825Z,16.15
2018-11-20T14:07:54.162Z,14.50
2018-11-20T14:13:20.419Z,13.50
2018-11-20T14:18:49.782Z,13.50
2018-11-20T14:24:13.104Z,14.85
2018-11-20T14:29:37.113Z,14.47
2018-11-20T14:33:23.624Z,15.20
2018-11-20T14:36:04.753Z,15.43
2018-11-20T14:41:28.628Z,16.93
2018-11-20T14:46:52.000Z,15.98
2018-11-20T14:52:21.950Z,14.90
2018-11-20T14:57:45.820Z,16.67
2018-11-20T15:03:12.375Z,15.85
2018-11-20T15:08:36.024Z,18.42
2018-11-20T15:13:59.902Z,17.98
2018-11-20T15:19:26.458Z,15.83
2018-11-20T15:24:52.941Z,18.87
2018-11-20T15:30:16.490Z,14.35
2018-11-20T15:35:40.171Z,16.12
2018-11-20T15:41:06.597Z,14.83
2018-11-20T15:46:30.199Z,15.55
2018-11-20T15:51:53.813Z,16.52
2018-11-20T15:57:17.055Z,17.48
2018-11-20T16:02:43.534Z,19.45
2018-11-20T16:08:07.570Z,14.45
2018-11-20T16:13:31.209Z,16.75
2018-11-20T16:19:15.821Z,18.73
2018-11-20T16:24:42.595Z,17.30
2018-11-20T16:30:06.422Z,16.55
2018-11-20T16:35:29.908Z,19.27
2018-11-20T16:40:53.312Z,14.80
2018-11-20T16:46:17.199Z,18.17
2018-11-20T16:51:46.993Z,17.92
2018-11-20T16:57:10.840Z,19.35
2018-11-20T17:02:34.337Z,18.27
2018-11-20T17:08:00.496Z,16.82
2018-11-20T17:13:30.082Z,17.90
2018-11-20T17:18:59.572Z,18.00
2018-11-20T17:24:22.900Z,17.40
2018-11-20T17:29:47.012Z,16.80
2018-11-20T17:40:42.533Z,19.27
2018-11-20T17:46:06.745Z,22.75
2018-11-20T17:51:30.738Z,21.77
2018-11-20T17:56:54.310Z,21.90
2018-11-20T18:02:17.875Z,17.57
2018-11-20T18:07:41.683Z,20.60
2018-11-20T18:13:04.915Z,20.65
2018-11-20T18:18:28.473Z,21.52
2018-11-20T18:23:55.704Z,23.60
2018-11-20T18:29:19.708Z,22.05
2018-11-20T18:34:44.280Z,24.27
2018-11-20T18:40:06.754Z,27.00
2018-11-20T18:45:30.549Z,27.35
2018-11-20T18:50:54.375Z,25.17
2018-11-20T18:56:18.375Z,26.45
2018-11-20T19:01:42.031Z,27.45
2018-11-20T19:12:40.245Z,26.10
2018-11-20T19:18:20.231Z,25.27
2018-11-20T19:23:43.823Z,26.00
2018-11-20T19:29:07.179Z,28.12
2018-11-20T19:34:30.729Z,29.40
2018-11-20T19:39:54.129Z,24.10
2018-11-20T19:45:17.804Z,23.80
2018-11-20T19:50:41.590Z,26.17
2018-11-20T19:56:08.176Z,24.40
2018-11-20T20:01:31.732Z,27.82
2018-11-20T20:06:58.274Z,25.90
2018-11-20T20:12:24.980Z,24.35
2018-11-20T20:17:48.457Z,24.32
2018-11-20T20:23:15.525Z,25.45
2018-11-20T20:28:38.752Z,26.45
2018-11-20T20:34:02.496Z,25.92
2018-11-20T20:39:29.170Z,24.27
2018-11-20T20:44:55.612Z,25.75
2018-11-20T20:50:25.439Z,26.25
2018-11-20T20:55:55.071Z,26.48
2018-11-20T21:01:18.449Z,24.27
2018-11-20T21:06:42.404Z,24.35
2018-11-20T21:12:05.961Z,24.75
2018-11-20T21:17:30.264Z,27.02
2018-11-20T21:22:53.685Z,34.05
2018-11-20T21:28:17.605Z,34.43
2018-11-20T21:33:44.830Z,33.75
2018-11-20T21:39:08.731Z,35.48
2018-11-20T21:44:32.128Z,34.67
2018-11-20T21:47:35.805Z,30.70
2018-11-20T21:50:16.801Z,34.83
2018-11-20T21:55:47.602Z,35.45
2018-11-20T22:01:10.580Z,37.00
2018-11-20T22:06:40.653Z,29.32
2018-11-20T22:12:07.408Z,30.55
2018-11-20T22:17:30.658Z,34.45
2018-11-20T22:22:54.492Z,35.03
2018-11-20T22:28:18.646Z,34.65
2018-11-20T22:33:45.533Z,35.83
2018-11-20T22:39:12.636Z,34.23
2018-11-20T22:44:36.773Z,34.98
2018-11-20T22:50:00.281Z,36.63
2018-11-20T22:55:24.089Z,37.40
2018-11-20T23:00:53.699Z,33.88
2018-11-20T23:07:18.456Z,31.95
2018-11-20T23:09:47.411Z,34.40
2018-11-20T23:12:16.168Z,37.53
2018-11-20T23:14:44.957Z,35.68
2018-11-20T23:17:33.040Z,38.35
2018-11-20T23:20:14.362Z,33.20
2018-11-20T23:25:38.082Z,35.58
2018-11-20T23:31:05.216Z,33.55
2018-11-20T23:36:28.415Z,31.62
2018-11-20T23:41:52.008Z,37.78
2018-11-20T23:47:15.219Z,30.43
2018-11-20T23:52:44.821Z,32.40
2018-11-20T23:58:08.656Z,36.20
